Terminal Aerodrome Forecast
Issued by NWS Sioux Falls, SD

Home | Current Version | Previous Version | Text Only | Print | Product List | Glossary On
Versions: 1 2 3 4 5 6 7 8 9 10 11 12 13 14 15 16 17
994
FTUS43 KFSD 232330
TAFFSD
TAF
KFSD 232330Z 2400/2424 19015G23KT P6SM SCT250
     FM240300 16012KT P6SM SCT250
     FM240400 17010KT P6SM FEW250 WS014/19040KT
     FM240800 17014KT P6SM SCT200
     FM241700 18020G28KT P6SM SCT040 BKN100
     FM242100 21013G19KT P6SM SCT050 BKN100=

USA.gov is the U.S. government's official web portal to all federal, state and local government web resources and services.